Time;durP1;ratioP1;P1;durP2;ratioP2;P2;SDS_P1;SDS_P2;PMS_P1;PMS_P2;Temp;Humidity;BMP_temperature;BMP_pressure;BME280_temperature;BME280_humidity;BME280_pressure;Samples;Min_cycle;Max_cycle;Signal;HPM_P1;HPM_P2
2023/03/15 00:01:13;;;;;;;3.23;1.43;;;;;;;2.78;96.11;98425.97;4973507;28;20248;-57
2023/03/15 00:03:40;;;;;;;4.40;1.33;;;;;;;2.70;97.20;98433.41;4978241;28;20253;-57
2023/03/15 00:06:09;;;;;;;2.40;1.30;;;;;;;2.65;98.69;98433.69;4977822;28;20233;-57
2023/03/15 00:08:35;;;;;;;2.60;1.13;;;;;;;2.62;98.24;98443.41;4976368;28;20332;-58
2023/03/15 00:11:02;;;;;;;5.63;1.53;;;;;;;2.61;98.96;98452.91;4978563;28;20234;-58
2023/03/15 00:13:29;;;;;;;3.07;1.60;;;;;;;2.61;99.56;98467.53;4976598;28;20232;-57
2023/03/15 00:15:58;;;;;;;2.80;1.60;;;;;;;2.58;98.97;98472.88;4969370;28;20287;-56
2023/03/15 00:18:25;;;;;;;5.17;1.77;;;;;;;2.58;98.59;98478.03;4973741;28;20235;-56
2023/03/15 00:20:51;;;;;;;1.87;1.20;;;;;;;2.57;98.91;98473.81;4970367;28;20295;-55
2023/03/15 00:23:19;;;;;;;4.33;1.37;;;;;;;2.52;99.55;98481.88;4976364;28;20242;-55
2023/03/15 00:25:46;;;;;;;3.83;1.80;;;;;;;2.51;99.66;98499.06;4978248;28;20251;-57
2023/03/15 00:28:14;;;;;;;2.07;1.00;;;;;;;2.45;99.77;98503.81;4981505;28;20229;-56
2023/03/15 00:30:41;;;;;;;3.90;1.30;;;;;;;2.44;99.13;98515.03;4983568;28;20291;-56
2023/03/15 00:33:08;;;;;;;4.20;1.43;;;;;;;2.36;99.03;98512.97;4981537;28;20279;-57
2023/03/15 00:35:39;;;;;;;4.67;1.20;;;;;;;2.33;99.41;98511.44;5000838;28;20473;-57
2023/03/15 00:38:06;;;;;;;3.63;1.20;;;;;;;2.28;98.84;98515.22;4984750;28;20252;-55
2023/03/15 00:40:36;;;;;;;4.17;1.30;;;;;;;2.32;98.74;98519.25;4980371;28;20273;-54
2023/03/15 00:43:03;;;;;;;4.40;1.00;;;;;;;2.30;98.48;98519.34;4979071;28;20237;-57
2023/03/15 00:45:30;;;;;;;2.07;1.10;;;;;;;2.29;99.00;98525.44;4984119;28;20257;-55
2023/03/15 00:47:56;;;;;;;4.90;1.00;;;;;;;2.31;98.06;98525.31;4987531;28;20233;-57
2023/03/15 00:50:23;;;;;;;2.27;1.00;;;;;;;2.38;97.20;98523.19;4999473;28;20227;-56
2023/03/15 00:52:51;;;;;;;6.13;1.17;;;;;;;2.43;97.82;98526.28;4984961;28;20248;-56
2023/03/15 00:55:20;;;;;;;5.03;1.20;;;;;;;2.48;96.56;98534.53;4982794;28;20697;-57
2023/03/15 00:57:49;;;;;;;4.40;1.03;;;;;;;2.46;96.53;98532.03;4983538;28;20244;-57
2023/03/15 01:00:22;;;;;;;2.73;0.97;;;;;;;2.49;97.22;98542.16;4983151;28;20249;-57
2023/03/15 01:02:51;;;;;;;2.33;0.80;;;;;;;2.51;97.60;98554.94;4979706;28;20227;-57
2023/03/15 01:05:18;;;;;;;1.83;1.00;;;;;;;2.54;96.49;98553.91;4979644;28;20232;-57
2023/03/15 01:07:45;;;;;;;6.97;1.37;;;;;;;2.53;94.57;98550.50;4986679;28;20229;-54
2023/03/15 01:10:13;;;;;;;3.90;1.57;;;;;;;2.54;95.37;98553.91;4980554;28;20667;-57
2023/03/15 01:12:40;;;;;;;2.53;1.10;;;;;;;2.51;95.51;98555.75;4999665;28;20688;-57
2023/03/15 01:15:13;;;;;;;1.73;1.00;;;;;;;2.45;94.78;98560.50;4982841;28;20565;-57
2023/03/15 01:17:40;;;;;;;7.40;1.50;;;;;;;2.42;95.07;98571.00;4984487;28;20233;-57
2023/03/15 01:20:08;;;;;;;5.17;1.33;;;;;;;2.33;95.67;98556.94;4986282;28;20231;-57
2023/03/15 01:22:35;;;;;;;4.60;1.20;;;;;;;2.22;96.63;98557.66;4981555;28;20233;-58
2023/03/15 01:25:02;;;;;;;3.10;1.53;;;;;;;2.12;97.38;98562.56;4984136;28;20252;-57
2023/03/15 01:27:28;;;;;;;3.83;1.30;;;;;;;2.06;97.53;98560.41;4983291;28;20792;-56
2023/03/15 01:29:55;;;;;;;3.23;1.30;;;;;;;1.99;96.89;98551.44;4984697;28;20312;-54
2023/03/15 01:32:26;;;;;;;5.10;1.50;;;;;;;1.94;97.28;98550.91;4982663;28;20233;-55
2023/03/15 01:34:53;;;;;;;6.97;1.27;;;;;;;1.85;98.12;98552.28;4977015;28;20217;-57
2023/03/15 01:37:23;;;;;;;6.17;1.60;;;;;;;1.77;97.49;98560.50;4977157;28;20229;-57
2023/03/15 01:39:50;;;;;;;2.97;1.70;;;;;;;1.72;98.22;98562.53;4969738;28;20237;-57
2023/03/15 01:42:17;;;;;;;4.10;1.73;;;;;;;1.65;98.72;98566.41;4967932;28;20237;-54
2023/03/15 01:44:50;;;;;;;3.43;2.10;;;;;;;1.53;99.20;98580.88;4976690;28;20567;-57
2023/03/15 01:47:17;;;;;;;5.53;2.00;;;;;;;1.51;100.00;98580.16;4981908;28;20228;-54
2023/03/15 01:49:49;;;;;;;3.43;1.83;;;;;;;1.46;99.60;98583.81;4983957;28;20224;-56
2023/03/15 01:52:21;;;;;;;4.00;1.80;;;;;;;1.40;100.00;98585.94;4998198;28;20252;-57
2023/03/15 01:54:58;;;;;;;5.40;1.93;;;;;;;1.37;100.00;98588.69;4993101;28;20644;-55
2023/03/15 01:57:29;;;;;;;5.63;2.23;;;;;;;1.39;100.00;98587.69;4981575;28;20234;-57
2023/03/15 02:00:07;;;;;;;5.93;1.77;;;;;;;1.31;100.00;98595.03;4984262;28;20724;-57
2023/03/15 02:02:45;;;;;;;3.23;1.70;;;;;;;1.32;100.00;98594.94;4981641;28;20351;-55
2023/03/15 02:05:21;;;;;;;6.10;2.57;;;;;;;1.31;100.00;98593.28;4981496;28;20899;-56
2023/03/15 02:07:53;;;;;;;3.43;1.90;;;;;;;1.30;100.00;98590.81;5001196;28;20617;-56
2023/03/15 02:10:27;;;;;;;7.70;2.17;;;;;;;1.31;100.00;98590.72;4979461;28;20830;-56
2023/03/15 02:12:57;;;;;;;4.30;2.10;;;;;;;1.22;100.00;98601.56;4987304;28;20624;-56
2023/03/15 02:15:24;;;;;;;6.30;2.30;;;;;;;1.33;100.00;98612.03;4981427;28;20364;-57
2023/03/15 02:17:51;;;;;;;6.78;2.60;;;;;;;1.25;100.00;98618.56;4983199;28;20429;-57
2023/03/15 02:20:29;;;;;;;3.90;2.57;;;;;;;1.24;100.00;98607.44;4981549;28;20229;-55
2023/03/15 02:22:57;;;;;;;5.43;2.53;;;;;;;1.32;100.00;98615.50;4985016;28;20274;-57
2023/03/15 02:25:34;;;;;;;7.83;2.30;;;;;;;1.37;100.00;98616.97;4970527;28;20233;-54
2023/03/15 02:28:05;;;;;;;4.00;2.20;;;;;;;1.29;100.00;98613.13;4964862;28;20728;-57
2023/03/15 02:30:31;;;;;;;9.10;2.40;;;;;;;1.37;100.00;98612.69;4978004;28;20257;-56
2023/03/15 02:32:59;;;;;;;3.60;2.40;;;;;;;1.31;100.00;98623.34;4965838;28;20242;-56
2023/03/15 02:35:29;;;;;;;9.30;2.73;;;;;;;1.23;100.00;98620.41;4980380;28;20225;-56
2023/03/15 02:37:55;;;;;;;8.77;2.80;;;;;;;1.12;100.00;98615.88;4977347;28;20237;-54
2023/03/15 02:40:26;;;;;;;5.87;2.37;;;;;;;1.05;100.00;98623.13;4979530;28;20233;-57
2023/03/15 02:42:56;;;;;;;7.33;2.70;;;;;;;1.05;100.00;98628.28;4983799;28;20243;-55
2023/03/15 02:45:26;;;;;;;5.23;2.30;;;;;;;1.06;100.00;98635.06;4982704;28;20221;-55
2023/03/15 02:47:53;;;;;;;6.73;2.07;;;;;;;0.93;100.00;98634.97;4985497;28;20224;-57
2023/03/15 02:50:20;;;;;;;5.73;2.30;;;;;;;0.88;100.00;98635.22;4981218;28;20229;-54
2023/03/15 02:52:47;;;;;;;4.00;2.10;;;;;;;0.80;100.00;98641.75;4983636;28;20332;-58
2023/03/15 02:55:13;;;;;;;7.50;2.30;;;;;;;0.73;100.00;98644.66;4980201;28;20714;-56
2023/03/15 02:57:40;;;;;;;8.13;2.47;;;;;;;0.76;100.00;98653.91;4984991;28;20252;-56
2023/03/15 03:00:13;;;;;;;7.10;2.37;;;;;;;0.82;100.00;98651.00;4983285;28;20229;-56
2023/03/15 03:02:42;;;;;;;4.83;2.00;;;;;;;0.80;100.00;98650.25;4981612;28;20303;-57
2023/03/15 03:05:10;;;;;;;7.13;2.40;;;;;;;0.85;100.00;98645.69;4980983;28;20236;-56
2023/03/15 03:07:37;;;;;;;6.50;1.93;;;;;;;0.76;100.00;98647.97;4983403;28;20311;-56
2023/03/15 03:10:07;;;;;;;6.47;2.20;;;;;;;0.75;100.00;98649.69;4992309;28;20235;-56
2023/03/15 03:12:43;;;;;;;6.13;2.60;;;;;;;0.59;100.00;98653.13;4968519;28;20247;-55
2023/03/15 03:15:11;;;;;;;8.50;2.27;;;;;;;0.61;99.77;98653.06;4993936;28;20236;-57
2023/03/15 03:17:37;;;;;;;5.20;1.60;;;;;;;0.53;100.00;98660.38;4987479;28;20234;-57
2023/03/15 03:20:09;;;;;;;6.80;2.30;;;;;;;0.47;100.00;98655.56;4987592;28;20316;-57
2023/03/15 03:22:41;;;;;;;6.50;2.20;;;;;;;0.40;100.00;98660.25;4985303;28;20323;-53
2023/03/15 03:25:09;;;;;;;7.80;1.80;;;;;;;0.38;100.00;98670.56;4987400;28;20244;-55
2023/03/15 03:27:36;;;;;;;8.10;2.47;;;;;;;0.26;100.00;98653.28;4991010;28;20233;-56
2023/03/15 03:30:06;;;;;;;11.20;1.97;;;;;;;0.21;100.00;98660.41;4987547;28;21186;-57
2023/03/15 03:32:34;;;;;;;6.17;2.30;;;;;;;0.05;100.00;98666.38;4973305;28;20241;-55
2023/03/15 03:35:01;;;;;;;9.57;2.27;;;;;;;0.11;100.00;98670.38;4997499;28;20239;-57
2023/03/15 03:37:29;;;;;;;7.33;1.83;;;;;;;0.07;100.00;98669.69;4985966;28;20966;-57
2023/03/15 03:40:08;;;;;;;7.37;1.97;;;;;;;0.02;100.00;98663.16;5002225;28;20240;-57
2023/03/15 03:42:36;;;;;;;8.67;2.13;;;;;;;-0.08;100.00;98668.78;4984488;28;20624;-58
2023/03/15 03:45:04;;;;;;;10.57;2.20;;;;;;;-0.08;100.00;98665.41;4985911;28;20227;-57
2023/03/15 03:47:35;;;;;;;9.37;2.47;;;;;;;-0.09;100.00;98661.19;4999367;28;20861;-57
2023/03/15 03:50:02;;;;;;;4.73;1.93;;;;;;;-0.19;100.00;98666.81;4979690;28;20246;-56
2023/03/15 03:52:30;;;;;;;6.43;1.60;;;;;;;-0.23;100.00;98670.44;4972518;28;20240;-54
2023/03/15 03:55:05;;;;;;;7.47;2.13;;;;;;;-0.24;100.00;98671.34;4998964;28;20256;-55
2023/03/15 03:57:32;;;;;;;3.30;1.60;;;;;;;-0.30;100.00;98672.50;4975098;28;20228;-56
2023/03/15 03:59:59;;;;;;;7.47;1.60;;;;;;;-0.31;100.00;98672.59;4986457;28;20720;-57
2023/03/15 04:02:26;;;;;;;5.93;1.67;;;;;;;-0.37;100.00;98673.72;4984071;28;20233;-56
2023/03/15 04:05:02;;;;;;;9.10;1.87;;;;;;;-0.49;100.00;98682.88;4986327;28;20230;-57
2023/03/15 04:07:31;;;;;;;6.63;1.77;;;;;;;-0.53;100.00;98678.00;4983894;28;20334;-57
2023/03/15 04:09:57;;;;;;;4.13;1.50;;;;;;;-0.38;100.00;98689.19;4986851;28;20235;-57
2023/03/15 04:12:24;;;;;;;4.47;1.50;;;;;;;-0.49;100.00;98685.44;4984978;28;20247;-56
2023/03/15 04:14:54;;;;;;;6.10;2.23;;;;;;;-0.56;100.00;98689.25;4978176;28;20648;-57
2023/03/15 04:17:23;;;;;;;8.30;2.42;;;;;;;-0.59;100.00;98691.97;4966426;28;20481;-57
2023/03/15 04:19:49;;;;;;;8.80;1.80;;;;;;;-0.50;100.00;98688.94;4978211;28;20565;-57
2023/03/15 04:22:23;;;;;;;9.87;2.20;;;;;;;-0.37;100.00;98693.41;4983441;28;20759;-56
2023/03/15 04:25:25;;;;;;;5.80;1.70;;;;;;;-0.37;100.00;98690.84;4983754;28;20229;-53
2023/03/15 04:28:12;;;;;;;6.87;1.67;;;;;;;-0.29;100.00;98704.13;4983866;28;20252;-57
2023/03/15 04:33:42;;;;;;;4.90;2.53;;;;;;;-0.34;100.00;98704.34;4937771;29;20237;-59
2023/03/15 04:36:27;;;;;;;5.07;1.93;;;;;;;-0.24;100.00;98706.44;4938243;29;20253;-60
2023/03/15 04:39:12;;;;;;;7.00;2.53;;;;;;;-0.30;100.00;98712.72;4931888;29;20651;-58
2023/03/15 04:41:46;;;;;;;5.13;1.97;;;;;;;-0.41;100.00;98705.56;4940211;29;20271;-59
2023/03/15 04:44:28;;;;;;;5.50;1.67;;;;;;;-0.47;100.00;98706.72;4928102;29;20233;-58
2023/03/15 04:47:08;;;;;;;3.67;1.70;;;;;;;-0.51;100.00;98712.06;4940985;29;20242;-59
2023/03/15 04:49:47;;;;;;;10.50;2.03;;;;;;;-0.55;100.00;98708.03;4928784;29;20333;-59
2023/03/15 04:52:34;;;;;;;8.27;2.20;;;;;;;-0.50;100.00;98704.31;4929489;29;20246;-58
2023/03/15 04:55:20;;;;;;;4.63;1.60;;;;;;;-0.42;100.00;98703.09;4937419;29;20248;-59
2023/03/15 04:57:59;;;;;;;7.17;2.17;;;;;;;-0.42;100.00;98714.16;4928879;29;20560;-59
2023/03/15 05:00:32;;;;;;;6.20;1.70;;;;;;;-0.29;100.00;98709.25;4936970;29;20591;-59
2023/03/15 05:03:17;;;;;;;8.53;1.80;;;;;;;-0.17;100.00;98700.91;4935983;29;20244;-58
2023/03/15 05:06:06;;;;;;;4.13;1.30;;;;;;;-0.12;100.00;98699.84;4923798;29;20244;-59
2023/03/15 05:08:49;;;;;;;5.63;1.63;;;;;;;-0.20;100.00;98695.94;4931667;29;20609;-59
2023/03/15 05:11:34;;;;;;;13.43;2.30;;;;;;;-0.17;100.00;98693.22;4928300;29;20239;-59
2023/03/15 05:14:11;;;;;;;9.80;2.90;;;;;;;-0.25;100.00;98703.03;4931143;29;20662;-59
2023/03/15 05:16:47;;;;;;;10.75;2.03;;;;;;;-0.22;100.00;98700.31;4923341;29;20865;-59
2023/03/15 05:19:33;;;;;;;5.47;1.90;;;;;;;-0.08;99.00;98701.34;4921345;29;20328;-59
2023/03/15 05:22:27;;;;;;;7.27;1.70;;;;;;;-0.11;98.69;98709.19;4921245;29;20241;-59
2023/03/15 05:25:11;;;;;;;6.37;4.20;;;;;;;-0.12;98.30;98707.53;4918200;29;20924;-59
2023/03/15 05:27:56;;;;;;;7.00;2.20;;;;;;;-0.06;99.60;98709.78;4922581;29;20243;-59
2023/03/15 05:30:57;;;;;;;10.23;3.40;;;;;;;-0.18;99.20;98708.66;4927422;29;20278;-60
2023/03/15 05:33:47;;;;;;;7.20;2.30;;;;;;;-0.27;100.00;98710.00;4929850;29;20377;-59
2023/03/15 05:36:52;;;;;;;8.50;2.47;;;;;;;-0.27;100.00;98706.59;4862032;29;20324;-59
2023/03/15 05:39:40;;;;;;;8.30;3.43;;;;;;;-0.36;100.00;98713.03;4866508;29;20275;-60
2023/03/15 05:42:07;;;;;;;9.87;3.53;;;;;;;-0.38;100.00;98712.28;4910755;29;20568;-59
2023/03/15 05:44:36;;;;;;;6.63;2.10;;;;;;;-0.40;100.00;98714.91;4935792;29;20244;-59
2023/03/15 05:47:19;;;;;;;6.95;2.10;;;;;;;-0.25;99.99;98718.44;4917248;29;20481;-59
2023/03/15 05:50:08;;;;;;;12.37;3.00;;;;;;;-0.20;99.09;98718.19;4909705;29;20738;-59
2023/03/15 05:52:58;;;;;;;7.23;3.60;;;;;;;-0.31;99.36;98716.19;4914168;29;20333;-59
2023/03/15 05:55:40;;;;;;;10.13;3.37;;;;;;;-0.36;99.84;98718.16;4921289;29;20235;-59
2023/03/15 05:58:26;;;;;;;5.13;2.90;;;;;;;-0.45;100.00;98730.56;4934683;29;20245;-59
2023/03/15 06:01:11;;;;;;;6.90;3.13;;;;;;;-0.54;100.00;98731.00;4937405;29;20231;-59
2023/03/15 06:03:57;;;;;;;8.87;3.80;;;;;;;-0.62;100.00;98731.41;4928449;29;20575;-60
2023/03/15 06:06:28;;;;;;;11.10;3.60;;;;;;;-0.71;100.00;98726.75;4917619;29;20230;-59
2023/03/15 06:08:55;;;;;;;6.87;2.90;;;;;;;-0.75;100.00;98731.19;4914851;29;20230;-59
2023/03/15 06:11:21;;;;;;;7.63;2.80;;;;;;;-0.75;100.00;98731.19;4908752;29;20290;-59
2023/03/15 06:13:49;;;;;;;13.97;4.80;;;;;;;-0.81;100.00;98738.38;4944948;29;20298;-59
2023/03/15 06:16:29;;;;;;;15.10;5.70;;;;;;;-0.79;100.00;98744.25;4927908;29;20269;-59
2023/03/15 06:18:59;;;;;;;11.80;4.37;;;;;;;-0.84;100.00;98744.44;4933051;29;20230;-59
2023/03/15 06:21:26;;;;;;;7.27;3.83;;;;;;;-0.84;100.00;98748.75;4937535;29;20691;-59
2023/03/15 06:23:53;;;;;;;13.50;3.47;;;;;;;-0.83;100.00;98743.56;4929079;29;20237;-59
2023/03/15 06:26:20;;;;;;;8.40;4.70;;;;;;;-0.80;100.00;98743.41;4923315;29;20726;-58
2023/03/15 06:28:48;;;;;;;8.13;2.63;;;;;;;-0.70;100.00;98754.03;4915049;29;20254;-59
2023/03/15 06:31:15;;;;;;;5.80;2.60;;;;;;;-0.73;100.00;98746.50;4926553;29;20243;-59
2023/03/15 06:33:50;;;;;;;10.33;3.93;;;;;;;-0.73;100.00;98753.34;4920963;29;20230;-60
2023/03/15 06:36:18;;;;;;;11.10;2.57;;;;;;;-0.67;100.00;98753.03;4936840;29;20224;-60
2023/03/15 06:38:45;;;;;;;6.70;2.07;;;;;;;-0.67;100.00;98760.75;4923490;29;20239;-60
2023/03/15 06:41:14;;;;;;;8.13;3.27;;;;;;;-0.63;100.00;98770.78;4924125;29;20241;-60
2023/03/15 06:43:41;;;;;;;12.77;5.97;;;;;;;-0.50;100.00;98760.72;4928343;29;20604;-59
2023/03/15 06:46:08;;;;;;;7.07;3.43;;;;;;;-0.42;100.00;98757.75;4939960;29;20239;-60
2023/03/15 06:48:35;;;;;;;7.43;2.77;;;;;;;-0.21;100.00;98765.28;4940443;29;20704;-60
2023/03/15 06:51:02;;;;;;;10.67;2.10;;;;;;;0.07;96.88;98768.97;4940033;29;20234;-59
2023/03/15 06:53:30;;;;;;;7.10;2.07;;;;;;;0.37;93.42;98765.69;4916985;29;20281;-60
2023/03/15 06:55:57;;;;;;;5.40;2.30;;;;;;;0.61;92.09;98768.66;4920998;29;20326;-59
2023/03/15 06:58:24;;;;;;;7.43;3.27;;;;;;;0.82;89.18;98778.66;4933491;29;20223;-60
2023/03/15 07:00:51;;;;;;;6.37;2.03;;;;;;;1.01;88.43;98781.03;4939051;29;20242;-60
2023/03/15 07:03:18;;;;;;;6.97;2.27;;;;;;;1.17;85.66;98783.56;4936794;29;20251;-60
2023/03/15 07:05:45;;;;;;;11.33;2.37;;;;;;;1.35;83.58;98791.97;4937119;29;20235;-59
2023/03/15 07:08:11;;;;;;;9.87;1.57;;;;;;;1.52;80.89;98803.03;4936399;29;20710;-61
2023/03/15 07:10:39;;;;;;;5.50;1.90;;;;;;;1.70;77.57;98807.09;4938049;29;20242;-60
2023/03/15 07:13:06;;;;;;;10.87;2.00;;;;;;;1.77;77.82;98800.66;4937170;29;20229;-60
2023/03/15 07:15:33;;;;;;;8.03;1.80;;;;;;;1.97;75.64;98800.44;4933356;29;20225;-60
2023/03/15 07:18:00;;;;;;;9.20;1.60;;;;;;;2.11;74.51;98808.16;4922819;29;20232;-60
2023/03/15 07:20:27;;;;;;;13.97;2.10;;;;;;;2.25;71.58;98797.00;4928832;29;20226;-60
2023/03/15 07:22:53;;;;;;;7.57;2.43;;;;;;;2.41;73.85;98804.59;4925590;29;20236;-60
2023/03/15 07:25:22;;;;;;;9.17;2.10;;;;;;;2.51;71.09;98803.13;4923435;29;20238;-60
2023/03/15 07:27:53;;;;;;;8.20;1.47;;;;;;;2.60;68.27;98801.72;4919224;29;20315;-61
2023/03/15 07:30:21;;;;;;;2.30;1.50;;;;;;;2.72;69.41;98804.44;4936882;29;20619;-59
2023/03/15 07:32:47;;;;;;;6.07;2.03;;;;;;;2.89;69.12;98808.56;4939424;29;20244;-60
2023/03/15 07:35:15;;;;;;;6.27;1.13;;;;;;;3.06;68.13;98803.16;4937830;29;20226;-60
2023/03/15 07:37:42;;;;;;;4.07;1.00;;;;;;;3.07;67.55;98807.38;4938832;29;20232;-60
2023/03/15 07:40:11;;;;;;;5.73;1.70;;;;;;;3.01;67.39;98815.50;4936793;29;20236;-60
2023/03/15 07:42:38;;;;;;;6.47;1.80;;;;;;;3.16;69.16;98818.84;4937914;29;20235;-61
2023/03/15 07:45:09;;;;;;;6.30;1.83;;;;;;;3.11;69.04;98815.72;4919390;29;20237;-60
2023/03/15 07:47:36;;;;;;;6.30;1.80;;;;;;;3.25;70.58;98815.69;4936139;29;20716;-61
2023/03/15 07:50:03;;;;;;;7.30;2.00;;;;;;;3.19;68.48;98815.22;4939312;29;20264;-60
2023/03/15 07:52:30;;;;;;;7.67;5.43;;;;;;;3.40;70.20;98819.00;4934218;29;20315;-60
2023/03/15 07:54:56;;;;;;;10.40;5.40;;;;;;;3.56;70.41;98830.91;4936423;29;20331;-59
2023/03/15 07:57:23;;;;;;;5.77;2.30;;;;;;;3.53;67.03;98824.19;4934284;29;20703;-58
2023/03/15 07:59:51;;;;;;;4.23;1.43;;;;;;;3.54;66.25;98823.28;4938656;29;20293;-60
2023/03/15 08:02:19;;;;;;;3.53;1.30;;;;;;;3.79;65.52;98820.81;4935704;28;20227;-60
2023/03/15 08:04:46;;;;;;;21.40;10.13;;;;;;;3.81;66.25;98816.38;4942234;29;20278;-60
2023/03/15 08:07:12;;;;;;;12.03;5.73;;;;;;;3.76;66.00;98819.25;4939006;29;20247;-59
2023/03/15 08:09:39;;;;;;;13.23;3.80;;;;;;;4.01;66.51;98820.19;4940680;29;20243;-60
2023/03/15 08:12:06;;;;;;;6.97;2.07;;;;;;;3.94;66.18;98830.09;4941921;29;20321;-60
2023/03/15 08:14:32;;;;;;;4.13;2.60;;;;;;;4.04;66.33;98830.31;4938250;29;20612;-60
2023/03/15 08:16:59;;;;;;;10.10;5.57;;;;;;;4.00;65.16;98834.03;4938791;29;20298;-60
2023/03/15 08:19:27;;;;;;;2.37;0.93;;;;;;;3.84;63.01;98829.06;4939677;29;20286;-60
2023/03/15 08:21:53;;;;;;;6.37;4.03;;;;;;;3.85;63.60;98833.31;4943114;29;20236;-60
2023/03/15 08:24:21;;;;;;;6.37;1.00;;;;;;;3.81;64.64;98818.94;4939416;29;20248;-60
2023/03/15 08:26:47;;;;;;;3.27;1.87;;;;;;;3.91;65.59;98825.16;4939937;29;20233;-60
2023/03/15 08:29:14;;;;;;;6.57;2.07;;;;;;;3.94;62.02;98822.38;4939160;29;20263;-61
2023/03/15 08:31:41;;;;;;;2.73;1.53;;;;;;;4.04;62.54;98829.50;4941253;29;20254;-61
2023/03/15 08:34:07;;;;;;;8.80;3.50;;;;;;;3.93;62.26;98819.88;4939465;29;20330;-61
2023/03/15 08:36:35;;;;;;;10.30;4.57;;;;;;;4.10;62.46;98834.25;4942254;29;20289;-60
2023/03/15 08:39:04;;;;;;;7.33;3.67;;;;;;;4.08;62.16;98829.16;4940502;29;20242;-60
2023/03/15 08:41:30;;;;;;;9.07;2.17;;;;;;;4.21;61.89;98828.34;4936196;29;20274;-60
2023/03/15 08:43:57;;;;;;;7.03;2.30;;;;;;;4.24;61.91;98838.47;4941016;29;20241;-60
2023/03/15 08:46:24;;;;;;;6.13;1.40;;;;;;;4.27;61.72;98840.81;4938318;29;20224;-60
2023/03/15 08:48:50;;;;;;;6.17;1.17;;;;;;;4.30;61.78;98840.63;4939081;29;20247;-60
2023/03/15 08:51:18;;;;;;;2.23;0.83;;;;;;;4.22;59.25;98846.31;4938844;29;20742;-60
2023/03/15 08:53:46;;;;;;;12.60;3.90;;;;;;;4.31;59.76;98851.78;4937288;29;20286;-60
2023/03/15 08:56:13;;;;;;;4.67;1.30;;;;;;;4.33;60.62;98845.56;4936677;29;20646;-62
2023/03/15 08:58:40;;;;;;;3.17;1.17;;;;;;;4.43;60.47;98850.94;4938540;29;20294;-59
2023/03/15 09:01:06;;;;;;;4.73;1.53;;;;;;;4.48;59.95;98846.28;4941285;29;20232;-60
2023/03/15 09:03:33;;;;;;;3.43;0.90;;;;;;;4.58;60.78;98849.88;4936759;29;20238;-60
2023/03/15 09:06:00;;;;;;;4.53;2.13;;;;;;;4.62;61.17;98849.66;4938169;29;20295;-60
2023/03/15 09:08:27;;;;;;;3.60;1.47;;;;;;;4.84;58.86;98848.97;4938199;29;20234;-60
2023/03/15 09:10:56;;;;;;;4.23;1.87;;;;;;;4.87;59.87;98862.53;4941979;29;20810;-60
2023/03/15 09:13:23;;;;;;;3.60;0.80;;;;;;;5.04;59.18;98870.84;4927119;29;20291;-60
2023/03/15 09:15:50;;;;;;;4.17;1.33;;;;;;;4.94;59.19;98868.06;4940432;29;20282;-58
2023/03/15 09:18:17;;;;;;;7.07;1.20;;;;;;;4.85;59.71;98868.72;4937951;29;20318;-60
2023/03/15 09:20:45;;;;;;;4.60;1.23;;;;;;;4.88;58.70;98865.91;4941138;29;20336;-61
2023/03/15 09:23:12;;;;;;;6.03;2.13;;;;;;;4.77;60.51;98873.63;4936059;29;20253;-61
2023/03/15 09:25:39;;;;;;;3.63;0.77;;;;;;;4.95;58.24;98867.13;4940656;29;20242;-61
2023/03/15 09:28:10;;;;;;;5.23;1.30;;;;;;;4.97;58.23;98880.78;4940649;29;20702;-60
2023/03/15 09:30:38;;;;;;;5.90;1.10;;;;;;;4.95;59.62;98866.31;4937558;29;20226;-61
2023/03/15 09:33:05;;;;;;;5.67;0.80;;;;;;;4.94;58.02;98867.25;4940773;29;20227;-60
2023/03/15 09:35:31;;;;;;;3.83;1.30;;;;;;;5.09;60.42;98866.16;4933925;29;20232;-60
2023/03/15 09:37:58;;;;;;;3.17;1.10;;;;;;;5.13;60.21;98872.78;4940270;29;20750;-60
2023/03/15 09:40:28;;;;;;;5.03;1.20;;;;;;;5.21;58.06;98874.81;4938007;29;20317;-61
2023/03/15 09:43:03;;;;;;;3.03;0.90;;;;;;;5.84;64.27;98886.69;4930156;29;20263;-62
2023/03/15 09:45:44;;;;;;;5.57;0.60;;;;;;;5.85;55.37;98881.38;4922363;29;20238;-63
2023/03/15 09:48:15;;;;;;;3.03;0.80;;;;;;;5.88;54.66;98875.97;4935659;29;20453;-61
2023/03/15 09:50:47;;;;;;;4.43;0.83;;;;;;;6.08;54.45;98863.31;4937361;29;20230;-60
2023/03/15 09:53:17;;;;;;;4.77;1.33;;;;;;;5.96;54.49;98882.34;4934111;29;20325;-61
2023/03/15 09:55:47;;;;;;;3.67;1.40;;;;;;;6.35;54.16;98873.38;4935971;29;20611;-60
2023/03/15 09:58:18;;;;;;;3.83;0.83;;;;;;;6.44;54.67;98886.53;4928658;29;20670;-59
2023/03/15 10:00:49;;;;;;;3.57;1.07;;;;;;;6.64;55.34;98888.41;4940114;29;20290;-59
2023/03/15 10:03:21;;;;;;;2.93;0.80;;;;;;;6.58;52.57;98901.06;4934139;29;20243;-59
2023/03/15 10:05:57;;;;;;;6.13;1.10;;;;;;;7.07;50.56;98898.97;4935906;29;20227;-60
2023/03/15 10:08:25;;;;;;;4.40;1.00;;;;;;;6.86;51.27;98898.91;4918333;29;20231;-60
2023/03/15 10:11:08;;;;;;;1.93;0.90;;;;;;;6.72;53.39;98900.81;4921108;29;20314;-59
2023/03/15 10:13:54;;;;;;;8.07;1.20;;;;;;;7.19;50.93;98920.53;4938699;29;20237;-59
2023/03/15 10:16:32;;;;;;;2.57;1.17;;;;;;;7.11;51.85;98909.94;4936192;29;20233;-59
2023/03/15 10:19:06;;;;;;;4.00;1.10;;;;;;;6.90;53.37;98908.91;4940554;29;20230;-62
2023/03/15 10:21:40;;;;;;;4.00;1.40;;;;;;;7.06;54.58;98911.13;4935324;29;20316;-59
2023/03/15 10:24:15;;;;;;;3.87;1.60;;;;;;;6.87;54.39;98887.59;4939845;28;20239;-59
2023/03/15 10:26:43;;;;;;;5.03;1.50;;;;;;;7.14;53.59;98896.72;4917424;29;20243;-59
2023/03/15 10:29:15;;;;;;;5.03;1.13;;;;;;;7.47;54.04;98892.38;4935797;29;20591;-60
2023/03/15 10:31:46;;;;;;;5.27;1.37;;;;;;;7.68;52.53;98897.56;4937048;29;20248;-59
2023/03/15 10:34:13;;;;;;;2.93;1.03;;;;;;;7.41;52.98;98901.50;4917718;29;20240;-59
2023/03/15 10:36:45;;;;;;;2.63;1.30;;;;;;;7.05;54.95;98916.44;4927314;29;20231;-60
2023/03/15 10:39:12;;;;;;;3.20;1.27;;;;;;;7.70;51.13;98906.06;4934809;29;20239;-60
2023/03/15 10:41:41;;;;;;;5.07;1.27;;;;;;;7.40;54.92;98907.63;4936028;29;20270;-59
2023/03/15 10:44:12;;;;;;;2.70;1.20;;;;;;;7.47;53.39;98902.75;4938714;29;20238;-60
2023/03/15 10:46:39;;;;;;;6.15;2.72;;;;;;;7.82;54.11;98901.66;4935963;29;20436;-59
2023/03/15 10:49:12;;;;;;;3.70;2.13;;;;;;;8.23;52.92;98891.34;4937737;29;20302;-60
2023/03/15 10:51:42;;;;;;;4.70;1.43;;;;;;;8.03;52.15;98895.59;4938207;29;20441;-60
2023/03/15 10:54:14;;;;;;;5.93;2.03;;;;;;;7.86;53.10;98897.84;4938708;29;20635;-60
2023/03/15 10:56:46;;;;;;;2.63;1.30;;;;;;;8.04;53.14;98916.28;4930201;29;20240;-60
2023/03/15 10:59:19;;;;;;;2.57;1.50;;;;;;;8.25;50.30;98905.06;4935824;29;20248;-59
2023/03/15 11:01:48;;;;;;;6.40;1.53;;;;;;;7.68;52.33;98893.22;4938827;29;20300;-60
2023/03/15 11:04:20;;;;;;;6.07;1.20;;;;;;;8.28;53.08;98894.41;4936608;29;20742;-60
2023/03/15 11:06:49;;;;;;;3.03;1.47;;;;;;;8.33;51.80;98897.44;4939171;29;20234;-60
2023/03/15 11:09:18;;;;;;;4.67;1.83;;;;;;;8.33;50.21;98897.44;4935196;29;20263;-61
2023/03/15 11:12:01;;;;;;;3.93;1.40;;;;;;;7.67;53.25;98886.38;4939354;29;20651;-59
2023/03/15 11:14:35;;;;;;;3.70;1.83;;;;;;;8.03;53.35;98893.00;4931536;29;20223;-60
2023/03/15 11:17:04;;;;;;;4.47;2.23;;;;;;;8.12;52.37;98885.28;4941504;29;20251;-59
2023/03/15 11:19:37;;;;;;;3.50;1.20;;;;;;;8.01;51.89;98885.34;4934699;29;20237;-59
2023/03/15 11:22:04;;;;;;;3.20;1.50;;;;;;;8.48;52.49;98884.88;4920620;29;20626;-60
2023/03/15 11:24:33;;;;;;;2.60;1.30;;;;;;;8.40;52.42;98884.72;4933797;29;20294;-60
2023/03/15 11:27:02;;;;;;;4.60;1.53;;;;;;;8.05;51.94;98875.50;4937317;29;20241;-60
2023/03/15 11:29:31;;;;;;;3.47;1.57;;;;;;;8.05;51.35;98886.75;4937340;29;20232;-60
2023/03/15 11:31:59;;;;;;;1.87;1.37;;;;;;;7.89;51.94;98882.00;4938191;29;20264;-59
2023/03/15 11:34:38;;;;;;;2.40;1.40;;;;;;;7.76;53.79;98884.78;4933857;29;20232;-59
2023/03/15 11:37:12;;;;;;;4.50;1.63;;;;;;;7.76;55.65;98878.78;4938953;28;20287;-59
2023/03/15 11:39:44;;;;;;;6.60;1.60;;;;;;;7.58;56.10;98871.53;4942043;29;20692;-60
2023/03/15 11:42:14;;;;;;;3.37;1.57;;;;;;;7.88;55.79;98874.31;4941264;29;20603;-60
2023/03/15 11:44:46;;;;;;;4.33;1.60;;;;;;;8.12;53.33;98880.09;4937630;29;20240;-59
2023/03/15 11:47:18;;;;;;;3.23;1.40;;;;;;;8.15;53.51;98878.97;4935953;29;20245;-60
2023/03/15 11:49:50;;;;;;;4.20;1.47;;;;;;;8.02;52.68;98868.81;4942726;29;20283;-59
2023/03/15 11:52:19;;;;;;;2.47;1.40;;;;;;;7.62;53.00;98878.13;4936409;29;20940;-60
2023/03/15 11:54:46;;;;;;;4.10;1.60;;;;;;;7.61;54.81;98867.84;4942668;29;20231;-60
2023/03/15 11:57:37;;;;;;;4.40;1.50;;;;;;;7.59;55.20;98873.19;4939608;29;20747;-60